Time;durP1;ratioP1;P1;durP2;ratioP2;P2;SDS_P1;SDS_P2;PMS_P1;PMS_P2;Temp;Humidity;BMP_temperature;BMP_pressure;BME280_temperature;BME280_humidity;BME280_pressure;Samples;Min_cycle;Max_cycle;Signal;HPM_P1;HPM_P2
2022/07/19 00:01:43;;;;;;;9.45;4.32;;;;;;;;;;5115933;28;20122;-66
2022/07/19 00:04:09;;;;;;;6.50;4.45;;;;;;;;;;5114779;28;20436;-66
2022/07/19 00:06:35;;;;;;;13.10;4.63;;;;;;;;;;5114980;28;20100;-66
2022/07/19 00:09:02;;;;;;;10.32;4.60;;;;;;;;;;5114662;28;20433;-66
2022/07/19 00:11:28;;;;;;;7.55;4.55;;;;;;;;;;5115778;28;20047;-66
2022/07/19 00:13:54;;;;;;;10.73;5.00;;;;;;;;;;5115167;28;20121;-66
2022/07/19 00:16:20;;;;;;;8.38;4.47;;;;;;;;;;5115596;28;20050;-66
2022/07/19 00:18:46;;;;;;;7.90;4.72;;;;;;;;;;5115642;28;20047;-66
2022/07/19 00:21:12;;;;;;;5.93;4.22;;;;;;;;;;5114923;28;20034;-66
2022/07/19 00:23:38;;;;;;;9.02;4.40;;;;;;;;;;5115605;28;20039;-66
2022/07/19 00:26:04;;;;;;;7.45;4.35;;;;;;;;;;5123629;27;20042;-66
2022/07/19 00:28:31;;;;;;;8.32;4.20;;;;;;;;;;5135435;27;20062;-66
2022/07/19 00:30:58;;;;;;;6.32;4.00;;;;;;;;;;5135970;27;20412;-66
2022/07/19 00:33:24;;;;;;;5.68;4.30;;;;;;;;;;5136005;27;20099;-66
2022/07/19 00:35:50;;;;;;;7.60;4.68;;;;;;;;;;5135368;27;20035;-66
2022/07/19 00:38:16;;;;;;;6.70;4.35;;;;;;;;;;5135972;27;20050;-66
2022/07/19 00:40:42;;;;;;;8.98;4.40;;;;;;;;;;5135946;27;20134;-66
2022/07/19 00:43:09;;;;;;;6.75;4.60;;;;;;;;;;5135045;27;20035;-66
2022/07/19 00:45:35;;;;;;;8.80;4.07;;;;;;;;;;5134513;27;20035;-66
2022/07/19 00:48:02;;;;;;;7.70;4.30;;;;;;;;;;5135459;27;20092;-66
2022/07/19 00:50:28;;;;;;;8.93;4.65;;;;;;;;;;5135029;27;20035;-66
2022/07/19 00:53:00;;;;;;;12.25;4.80;;;;;;;;;;5135314;27;20055;-66
2022/07/19 00:55:26;;;;;;;;;;;;;;;;;;5134750;27;20051;-66
2022/07/19 00:57:53;;;;;;;6.88;4.28;;;;;;;;;;5134765;27;19925;-66
2022/07/19 01:00:19;;;;;;;8.05;4.78;;;;;;;;;;5135545;27;20042;-66
2022/07/19 01:02:45;;;;;;;15.88;4.50;;;;;;;;;;5133907;27;20417;-66
2022/07/19 01:05:11;;;;;;;8.98;4.70;;;;;;;;;;5134664;27;20058;-66
2022/07/19 01:07:39;;;;;;;8.10;4.53;;;;;;;;;;5135261;27;20054;-66
2022/07/19 01:10:06;;;;;;;8.23;4.90;;;;;;;;;;5134033;27;20043;-66
2022/07/19 01:12:34;;;;;;;8.23;4.85;;;;;;;;;;5134233;27;20055;-66
2022/07/19 01:15:00;;;;;;;6.97;4.25;;;;;;;;;;5135323;27;20538;-66
2022/07/19 01:17:26;;;;;;;9.55;4.40;;;;;;;;;;5133749;27;20688;-66
2022/07/19 01:19:53;;;;;;;6.25;4.60;;;;;;;;;;5134484;27;20040;-66
2022/07/19 01:22:19;;;;;;;6.03;4.47;;;;;;;;;;5134863;27;20027;-66
2022/07/19 01:24:45;;;;;;;9.23;5.50;;;;;;;;;;5134793;27;20031;-66
2022/07/19 01:27:11;;;;;;;8.68;5.20;;;;;;;;;;5116326;27;20523;-66
2022/07/19 01:29:37;;;;;;;7.55;4.18;;;;;;;;;;5114166;28;20676;-66
2022/07/19 01:32:04;;;;;;;6.47;4.47;;;;;;;;;;5114137;28;20043;-66
2022/07/19 01:34:30;;;;;;;8.88;4.75;;;;;;;;;;5113617;28;20032;-66
2022/07/19 01:36:56;;;;;;;8.70;4.63;;;;;;;;;;5113815;27;20569;-66
2022/07/19 01:39:22;;;;;;;8.18;4.97;;;;;;;;;;5112850;28;20090;-66
2022/07/19 01:41:48;;;;;;;5.93;4.28;;;;;;;;;;5113651;28;20451;-66
2022/07/19 01:44:15;;;;;;;7.30;4.82;;;;;;;;;;5112387;28;20036;-66
2022/07/19 01:46:41;;;;;;;11.90;5.00;;;;;;;;;;5113872;28;20043;-66
2022/07/19 01:49:07;;;;;;;8.15;4.60;;;;;;;;;;5113741;28;20044;-66
2022/07/19 01:51:33;;;;;;;9.98;4.88;;;;;;;;;;5113076;28;20050;-66
2022/07/19 01:53:59;;;;;;;7.93;4.55;;;;;;;;;;5112159;28;20122;-66
2022/07/19 01:56:25;;;;;;;7.70;4.63;;;;;;;;;;5113645;28;20051;-66
2022/07/19 01:58:51;;;;;;;9.32;4.70;;;;;;;;;;5111451;28;20068;-66
2022/07/19 02:01:17;;;;;;;8.70;5.20;;;;;;;;;;5112216;28;20382;-66
2022/07/19 02:03:43;;;;;;;6.50;4.45;;;;;;;;;;5113731;28;20043;-66
2022/07/19 02:06:09;;;;;;;7.47;4.88;;;;;;;;;;5111301;28;20050;-66
2022/07/19 02:08:35;;;;;;;10.23;4.90;;;;;;;;;;5111965;28;20047;-66
2022/07/19 02:11:34;;;;;;;7.68;4.47;;;;;;;;;;5113431;28;20046;-66
2022/07/19 02:13:50;;;;;;;5.63;4.50;;;;;;;;;;5112462;28;20047;-66
2022/07/19 02:16:16;;;;;;;9.25;5.13;;;;;;;;;;5112243;28;20112;-66
2022/07/19 02:18:42;;;;;;;7.60;5.22;;;;;;;;;;5113274;28;20092;-66
2022/07/19 02:21:08;;;;;;;6.40;4.65;;;;;;;;;;5112228;28;20481;-66
2022/07/19 02:23:34;;;;;;;9.52;4.75;;;;;;;;;;5113282;28;20036;-66
2022/07/19 02:26:00;;;;;;;9.82;5.60;;;;;;;;;;5120578;27;20042;-66
2022/07/19 02:28:26;;;;;;;9.35;5.00;;;;;;;;;;5131516;27;20082;-66
2022/07/19 02:30:52;;;;;;;6.70;4.80;;;;;;;;;;5133801;27;20544;-66
2022/07/19 02:33:18;;;;;;;7.20;4.80;;;;;;;;;;5132082;27;20050;-66
2022/07/19 02:35:44;;;;;;;8.75;4.25;;;;;;;;;;5131396;27;20465;-66
2022/07/19 02:38:10;;;;;;;7.80;4.55;;;;;;;;;;5133395;27;20419;-66
2022/07/19 02:40:36;;;;;;;8.50;4.88;;;;;;;;;;5133471;27;20035;-66
2022/07/19 02:43:02;;;;;;;11.90;4.82;;;;;;;;;;5132639;27;20142;-66
2022/07/19 02:45:28;;;;;;;6.97;5.30;;;;;;;;;;5133018;27;20039;-66
2022/07/19 02:47:54;;;;;;;7.05;4.57;;;;;;;;;;5133359;27;20039;-66
2022/07/19 02:50:20;;;;;;;6.22;4.68;;;;;;;;;;5132537;27;20088;-66
2022/07/19 02:52:46;;;;;;;7.03;4.30;;;;;;;;;;5133211;27;20043;-66
2022/07/19 02:55:12;;;;;;;7.90;5.15;;;;;;;;;;5131775;27;20051;-66
2022/07/19 02:57:38;;;;;;;5.85;4.53;;;;;;;;;;5132371;27;20139;-66
2022/07/19 03:00:07;;;;;;;8.23;4.88;;;;;;;;;;5131697;27;20047;-66
2022/07/19 03:02:33;;;;;;;5.35;4.57;;;;;;;;;;5132622;27;20092;-66
2022/07/19 03:04:59;;;;;;;5.90;4.40;;;;;;;;;;5131988;27;20100;-66
2022/07/19 03:07:25;;;;;;;7.70;4.47;;;;;;;;;;5133049;27;20078;-66
2022/07/19 03:09:51;;;;;;;8.15;5.07;;;;;;;;;;5132943;27;20047;-66
2022/07/19 03:12:17;;;;;;;6.32;4.50;;;;;;;;;;5132164;27;20046;-66
2022/07/19 03:14:43;;;;;;;8.63;4.75;;;;;;;;;;5131658;27;20042;-66
2022/07/19 03:17:09;;;;;;;8.10;5.05;;;;;;;;;;5132815;27;20078;-66
2022/07/19 03:19:35;;;;;;;7.85;5.00;;;;;;;;;;5130928;27;20047;-66
2022/07/19 03:22:02;;;;;;;7.57;4.60;;;;;;;;;;5132702;27;20031;-66
2022/07/19 03:24:28;;;;;;;7.25;4.75;;;;;;;;;;5131728;27;20031;-66
2022/07/19 03:26:54;;;;;;;8.65;5.35;;;;;;;;;;5116435;27;20036;-66
2022/07/19 03:29:20;;;;;;;7.15;5.07;;;;;;;;;;5110830;28;20075;-66
2022/07/19 03:31:46;;;;;;;6.75;5.13;;;;;;;;;;5111866;28;20046;-66
2022/07/19 03:34:12;;;;;;;8.15;5.10;;;;;;;;;;5109734;28;20044;-66
2022/07/19 03:36:38;;;;;;;7.80;4.97;;;;;;;;;;5112000;28;20039;-66
2022/07/19 03:39:04;;;;;;;7.95;5.07;;;;;;;;;;5110407;28;20104;-66
2022/07/19 03:41:30;;;;;;;8.02;5.18;;;;;;;;;;5110946;28;20043;-66
2022/07/19 03:43:56;;;;;;;8.43;5.15;;;;;;;;;;5111300;28;20044;-66
2022/07/19 03:46:22;;;;;;;8.00;4.95;;;;;;;;;;5111850;28;20039;-66
2022/07/19 03:48:48;;;;;;;7.82;5.13;;;;;;;;;;5109938;28;20048;-66
2022/07/19 03:51:15;;;;;;;8.80;5.13;;;;;;;;;;5111750;28;20047;-66
2022/07/19 03:53:41;;;;;;;6.68;4.90;;;;;;;;;;5111806;28;20082;-66
2022/07/19 03:56:07;;;;;;;6.35;4.78;;;;;;;;;;5111173;28;20465;-66
2022/07/19 03:58:33;;;;;;;8.75;5.22;;;;;;;;;;5110367;28;20692;-66
2022/07/19 04:00:59;;;;;;;7.50;5.10;;;;;;;;;;5111670;28;20050;-66
2022/07/19 04:03:25;;;;;;;8.38;5.32;;;;;;;;;;5110727;28;20040;-66
2022/07/19 04:05:51;;;;;;;10.73;4.75;;;;;;;;;;5110004;28;20062;-66
2022/07/19 04:08:17;;;;;;;8.23;4.82;;;;;;;;;;5110319;28;20177;-66
2022/07/19 04:10:43;;;;;;;8.23;5.38;;;;;;;;;;5111204;28;20468;-66
2022/07/19 04:13:09;;;;;;;9.70;5.43;;;;;;;;;;5110556;28;20043;-66
2022/07/19 04:15:35;;;;;;;8.48;5.07;;;;;;;;;;5110390;28;20168;-66
2022/07/19 04:18:01;;;;;;;8.93;4.93;;;;;;;;;;5111096;28;20039;-66
2022/07/19 04:20:27;;;;;;;7.05;4.97;;;;;;;;;;5110353;28;20123;-66
2022/07/19 04:22:55;;;;;;;7.55;5.45;;;;;;;;;;5110224;28;20486;-66
2022/07/19 04:25:21;;;;;;;11.40;4.90;;;;;;;;;;5113122;28;20040;-66
2022/07/19 04:27:47;;;;;;;9.18;5.82;;;;;;;;;;5130752;28;20151;-66
2022/07/19 04:30:13;;;;;;;9.45;4.68;;;;;;;;;;5130856;28;20039;-66
2022/07/19 04:32:39;;;;;;;8.82;5.20;;;;;;;;;;5131342;27;20039;-66
2022/07/19 04:35:07;;;;;;;8.60;5.10;;;;;;;;;;5132664;27;20493;-66
2022/07/19 04:37:33;;;;;;;8.40;4.65;;;;;;;;;;5134179;27;20591;-66
2022/07/19 04:39:59;;;;;;;7.45;4.65;;;;;;;;;;5133716;27;20413;-66
2022/07/19 04:42:25;;;;;;;6.95;5.10;;;;;;;;;;5135520;27;20092;-66
2022/07/19 04:44:52;;;;;;;9.77;5.60;;;;;;;;;;5135438;27;20114;-66
2022/07/19 04:47:18;;;;;;;9.27;5.70;;;;;;;;;;5134992;27;20064;-66
2022/07/19 04:49:44;;;;;;;10.23;5.40;;;;;;;;;;5135125;27;20045;-66
2022/07/19 04:52:10;;;;;;;11.65;5.63;;;;;;;;;;5133812;27;20393;-66
2022/07/19 04:54:36;;;;;;;8.98;5.22;;;;;;;;;;5133653;27;20076;-66
2022/07/19 04:57:03;;;;;;;9.80;5.38;;;;;;;;;;5133760;27;20058;-66
2022/07/19 04:59:29;;;;;;;10.02;6.03;;;;;;;;;;5135599;27;20458;-66
2022/07/19 05:01:55;;;;;;;11.43;5.70;;;;;;;;;;5133463;27;20072;-66
2022/07/19 05:04:21;;;;;;;7.85;5.50;;;;;;;;;;5134939;27;20028;-66
2022/07/19 05:06:49;;;;;;;10.70;5.35;;;;;;;;;;5135245;27;20083;-66
2022/07/19 05:09:16;;;;;;;9.23;5.32;;;;;;;;;;5134356;27;20091;-66
2022/07/19 05:11:42;;;;;;;12.30;5.40;;;;;;;;;;5135003;27;20047;-66
2022/07/19 05:14:08;;;;;;;8.35;5.50;;;;;;;;;;5135250;27;20092;-66
2022/07/19 05:16:34;;;;;;;10.93;5.88;;;;;;;;;;5134239;27;20044;-66
2022/07/19 05:19:00;;;;;;;12.07;6.07;;;;;;;;;;5135018;27;20039;-66
2022/07/19 05:21:26;;;;;;;13.15;5.65;;;;;;;;;;5134706;27;20087;-66
2022/07/19 05:23:52;;;;;;;11.02;5.47;;;;;;;;;;5134120;27;20050;-65
2022/07/19 05:26:18;;;;;;;9.77;5.60;;;;;;;;;;5124549;27;20827;-65
2022/07/19 05:28:44;;;;;;;9.95;6.35;;;;;;;;;;5113168;28;20040;-66
2022/07/19 05:31:10;;;;;;;7.25;5.15;;;;;;;;;;5114077;28;20047;-66
2022/07/19 05:33:36;;;;;;;13.38;5.90;;;;;;;;;;5113692;28;20528;-66
2022/07/19 05:36:03;;;;;;;11.68;5.25;;;;;;;;;;5114188;28;20047;-66
2022/07/19 05:38:29;;;;;;;8.77;6.20;;;;;;;;;;5114193;28;20633;-66
2022/07/19 05:40:55;;;;;;;7.90;5.22;;;;;;;;;;5113435;28;20093;-66
2022/07/19 05:43:21;;;;;;;8.52;6.20;;;;;;;;;;5113981;28;20409;-66
2022/07/19 05:45:47;;;;;;;11.40;5.88;;;;;;;;;;5113115;27;20355;-64
2022/07/19 05:48:13;;;;;;;9.85;5.53;;;;;;;;;;5131912;27;20043;-64
2022/07/19 05:50:39;;;;;;;11.93;6.35;;;;;;;;;;5154236;27;20045;-65
2022/07/19 05:53:05;;;;;;;9.80;5.70;;;;;;;;;;5154468;27;20042;-65
2022/07/19 05:55:32;;;;;;;9.77;5.78;;;;;;;;;;5153999;27;20047;-66
2022/07/19 05:57:58;;;;;;;8.77;6.03;;;;;;;;;;5140736;27;20071;-66
2022/07/19 06:00:24;;;;;;;8.38;5.75;;;;;;;;;;5136884;27;20038;-66
2022/07/19 06:02:50;;;;;;;9.25;5.68;;;;;;;;;;5154021;27;20037;-66
2022/07/19 06:05:16;;;;;;;11.65;5.82;;;;;;;;;;5153112;27;20527;-65
2022/07/19 06:07:42;;;;;;;9.82;5.30;;;;;;;;;;5133647;27;20089;-66
2022/07/19 06:10:08;;;;;;;9.15;5.35;;;;;;;;;;5149491;27;20039;-67
2022/07/19 06:12:34;;;;;;;10.18;5.57;;;;;;;;;;5150083;27;20058;-64
2022/07/19 06:15:00;;;;;;;10.23;5.80;;;;;;;;;;5122868;27;20046;-64
2022/07/19 06:17:26;;;;;;;8.77;5.47;;;;;;;;;;5113694;27;20039;-64
2022/07/19 06:19:53;;;;;;;7.28;5.15;;;;;;;;;;5118239;27;20396;-64
2022/07/19 06:22:19;;;;;;;9.38;5.88;;;;;;;;;;5134067;27;20095;-64
2022/07/19 06:24:45;;;;;;;12.27;6.22;;;;;;;;;;5134858;27;20122;-64
2022/07/19 06:27:11;;;;;;;11.95;5.80;;;;;;;;;;5135990;27;20122;-64
2022/07/19 06:29:37;;;;;;;8.68;5.50;;;;;;;;;;5146130;27;20049;-64
2022/07/19 06:32:04;;;;;;;13.13;6.55;;;;;;;;;;5153687;27;20038;-65
2022/07/19 06:34:30;;;;;;;10.20;6.18;;;;;;;;;;5147960;27;20056;-65
2022/07/19 06:36:56;;;;;;;14.10;6.45;;;;;;;;;;5147798;27;20035;-66
2022/07/19 06:39:22;;;;;;;13.23;6.22;;;;;;;;;;5127434;27;20044;-66
2022/07/19 06:41:48;;;;;;;11.13;7.25;;;;;;;;;;5127816;27;20518;-64
2022/07/19 06:44:14;;;;;;;12.23;6.72;;;;;;;;;;5128944;27;20593;-66
2022/07/19 06:46:40;;;;;;;11.23;6.07;;;;;;;;;;5152436;27;20115;-67
2022/07/19 06:49:06;;;;;;;10.63;6.45;;;;;;;;;;5150868;27;20070;-65
2022/07/19 06:51:32;;;;;;;9.65;6.40;;;;;;;;;;5152985;27;20046;-62
2022/07/19 06:54:00;;;;;;;11.45;6.78;;;;;;;;;;5151636;27;20704;-64
2022/07/19 06:56:26;;;;;;;10.48;6.40;;;;;;;;;;5153057;27;20034;-64
2022/07/19 06:58:52;;;;;;;14.10;6.57;;;;;;;;;;5152360;27;20129;-64
2022/07/19 07:01:19;;;;;;;13.10;6.30;;;;;;;;;;5152101;27;20064;-64
2022/07/19 07:03:45;;;;;;;10.23;5.95;;;;;;;;;;5152076;27;20567;-64
2022/07/19 07:06:11;;;;;;;10.25;6.35;;;;;;;;;;5152380;27;20053;-63
2022/07/19 07:08:37;;;;;;;9.18;6.25;;;;;;;;;;5151184;27;20465;-64
2022/07/19 07:11:03;;;;;;;13.02;6.40;;;;;;;;;;5152573;27;20392;-64
2022/07/19 07:13:29;;;;;;;11.90;6.88;;;;;;;;;;5151725;27;20046;-63
2022/07/19 07:15:55;;;;;;;12.30;6.60;;;;;;;;;;5152189;27;20372;-64
2022/07/19 07:18:21;;;;;;;8.93;5.78;;;;;;;;;;5150061;27;20087;-64
2022/07/19 07:20:48;;;;;;;12.23;5.55;;;;;;;;;;5152223;27;20043;-64
2022/07/19 07:23:14;;;;;;;10.57;5.68;;;;;;;;;;5151444;27;20042;-65
2022/07/19 07:25:40;;;;;;;10.15;5.57;;;;;;;;;;5147666;27;20518;-65
2022/07/19 07:28:06;;;;;;;12.15;6.78;;;;;;;;;;5152748;27;20070;-65
2022/07/19 07:30:32;;;;;;;9.85;5.60;;;;;;;;;;5150932;27;20042;-66
2022/07/19 07:32:58;;;;;;;9.77;6.40;;;;;;;;;;5150366;27;20397;-65
2022/07/19 07:35:24;;;;;;;11.02;5.57;;;;;;;;;;5151461;27;20045;-66
2022/07/19 07:37:50;;;;;;;14.60;6.15;;;;;;;;;;5148229;27;20564;-67
2022/07/19 07:40:16;;;;;;;18.75;5.60;;;;;;;;;;5135705;27;20146;-67
2022/07/19 07:42:42;;;;;;;11.70;5.07;;;;;;;;;;5143260;27;20038;-66
2022/07/19 07:45:09;;;;;;;12.57;5.57;;;;;;;;;;5133337;27;20372;-65
2022/07/19 07:47:35;;;;;;;7.07;4.63;;;;;;;;;;5129042;27;20039;-65
2022/07/19 07:50:02;;;;;;;8.95;4.93;;;;;;;;;;5137612;27;20046;-65
2022/07/19 07:52:28;;;;;;;10.40;4.70;;;;;;;;;;5151528;27;20043;-67
2022/07/19 07:54:54;;;;;;;10.23;4.25;;;;;;;;;;5151095;27;20042;-68
2022/07/19 07:57:21;;;;;;;9.48;4.60;;;;;;;;;;5150064;27;20075;-66
2022/07/19 07:59:47;;;;;;;8.25;4.38;;;;;;;;;;5150191;27;20046;-67
2022/07/19 08:02:13;;;;;;;9.73;4.78;;;;;;;;;;5144803;27;20747;-67
2022/07/19 08:04:39;;;;;;;15.02;5.72;;;;;;;;;;5139322;27;20035;-67
2022/07/19 08:07:05;;;;;;;12.15;4.70;;;;;;;;;;5149410;27;20046;-67
2022/07/19 08:09:31;;;;;;;7.22;4.82;;;;;;;;;;5150204;27;20361;-67
2022/07/19 08:11:57;;;;;;;8.70;4.10;;;;;;;;;;5142095;27;20042;-68
2022/07/19 08:14:23;;;;;;;9.63;4.93;;;;;;;;;;5141332;27;20041;-67
2022/07/19 08:16:49;;;;;;;6.95;4.10;;;;;;;;;;5144184;27;20580;-67
2022/07/19 08:19:15;;;;;;;6.57;3.53;;;;;;;;;;5150565;27;20053;-68
2022/07/19 08:21:41;;;;;;;5.65;3.83;;;;;;;;;;5143839;27;20042;-66
2022/07/19 08:24:07;;;;;;;10.27;4.13;;;;;;;;;;5131682;27;20047;-68
2022/07/19 08:26:33;;;;;;;13.00;4.40;;;;;;;;;;5146384;27;20035;-67
2022/07/19 08:28:59;;;;;;;10.63;4.03;;;;;;;;;;5152585;27;20046;-67
2022/07/19 08:31:25;;;;;;;9.02;3.83;;;;;;;;;;5145637;27;20058;-67
2022/07/19 08:33:51;;;;;;;8.43;3.65;;;;;;;;;;5155600;27;20365;-67
2022/07/19 08:36:17;;;;;;;7.80;3.38;;;;;;;;;;5155241;27;20039;-68
2022/07/19 08:38:43;;;;;;;8.60;3.33;;;;;;;;;;5152009;27;20045;-66
2022/07/19 08:41:10;;;;;;;5.38;3.30;;;;;;;;;;5155440;27;20034;-67
2022/07/19 08:43:36;;;;;;;10.35;5.75;;;;;;;;;;5153858;27;20056;-67
2022/07/19 08:46:03;;;;;;;6.95;3.35;;;;;;;;;;5153006;27;20110;-68
2022/07/19 08:48:39;;;;;;;5.63;3.20;;;;;;;;;;5149457;27;20119;-68
2022/07/19 08:51:05;;;;;;;5.80;2.50;;;;;;;;;;5154610;27;20106;-68
2022/07/19 08:53:32;;;;;;;5.05;2.97;;;;;;;;;;5149130;27;20043;-68
2022/07/19 08:55:59;;;;;;;7.38;2.85;;;;;;;;;;5134073;27;20043;-67
2022/07/19 08:58:26;;;;;;;8.07;2.67;;;;;;;;;;5154903;27;20054;-68
2022/07/19 09:00:52;;;;;;;5.18;2.85;;;;;;;;;;5145692;27;20066;-67
2022/07/19 09:03:18;;;;;;;5.20;3.03;;;;;;;;;;5154161;27;20050;-67
2022/07/19 09:05:45;;;;;;;5.22;2.50;;;;;;;;;;5153305;27;20050;-67
2022/07/19 09:08:12;;;;;;;5.68;2.78;;;;;;;;;;5154979;27;20477;-67
2022/07/19 09:10:40;;;;;;;9.02;2.70;;;;;;;;;;5145544;27;20034;-68
2022/07/19 09:13:13;;;;;;;8.63;3.70;;;;;;;;;;5154298;27;20034;-67
2022/07/19 09:15:54;;;;;;;12.43;4.80;;;;;;;;;;5141543;27;20046;-67
2022/07/19 09:18:22;;;;;;;6.20;2.70;;;;;;;;;;5154152;27;20496;-67
2022/07/19 09:20:50;;;;;;;6.68;2.92;;;;;;;;;;5154129;27;20046;-67
2022/07/19 09:23:16;;;;;;;6.28;2.40;;;;;;;;;;5152225;27;20061;-67
2022/07/19 09:25:50;;;;;;;2.80;1.92;;;;;;;;;;5150408;27;20039;-66
2022/07/19 09:28:16;;;;;;;7.10;3.38;;;;;;;;;;5153883;27;20062;-68
2022/07/19 09:30:44;;;;;;;7.18;3.08;;;;;;;;;;5153743;27;20046;-70
2022/07/19 09:33:11;;;;;;;7.60;3.65;;;;;;;;;;5151840;27;20042;-70
2022/07/19 09:35:40;;;;;;;8.52;3.08;;;;;;;;;;5152498;27;20065;-68
2022/07/19 10:09:14;;;;;;;3.45;2.15;;;;;;;;;;5165085;27;20171;-70
2022/07/19 10:11:40;;;;;;;7.88;2.00;;;;;;;;;;5153245;27;20058;-67
2022/07/19 10:14:07;;;;;;;5.88;2.30;;;;;;;;;;5151941;27;20047;-67
2022/07/19 10:16:39;;;;;;;3.40;1.98;;;;;;;;;;5192417;27;20045;-67
2022/07/19 10:19:09;;;;;;;3.60;2.17;;;;;;;;;;5194719;27;20034;-67
2022/07/19 10:21:35;;;;;;;4.97;2.13;;;;;;;;;;5188889;27;20045;-67
2022/07/19 10:24:02;;;;;;;4.22;2.15;;;;;;;;;;5160373;27;20026;-67
2022/07/19 10:26:38;;;;;;;6.40;2.30;;;;;;;;;;5171652;27;20073;-65
2022/07/19 10:29:17;;;;;;;6.78;1.88;;;;;;;;;;5179641;27;20049;-69
2022/07/19 10:32:02;;;;;;;13.52;7.45;;;;;;;;;;5155725;27;20078;-67
2022/07/19 10:34:28;;;;;;;5.18;1.98;;;;;;;;;;5166669;27;20037;-68
2022/07/19 10:36:55;;;;;;;4.15;2.30;;;;;;;;;;5194220;27;20449;-68
2022/07/19 10:39:34;;;;;;;6.28;2.10;;;;;;;;;;5187265;27;20413;-68
2022/07/19 10:42:16;;;;;;;4.72;2.20;;;;;;;;;;5169055;27;20043;-69
2022/07/19 10:44:57;;;;;;;6.65;2.20;;;;;;;;;;5194366;27;20056;-67
2022/07/19 10:47:37;;;;;;;7.13;1.90;;;;;;;;;;5151983;27;20529;-67
2022/07/19 10:50:04;;;;;;;7.72;3.70;;;;;;;;;;5181860;27;20136;-67
2022/07/19 10:52:30;;;;;;;4.47;2.40;;;;;;;;;;5194626;27;20036;-67
2022/07/19 10:55:14;;;;;;;7.40;2.55;;;;;;;;;;5193737;27;20040;-68
2022/07/19 10:57:40;;;;;;;9.55;2.60;;;;;;;;;;5193115;27;20049;-68
2022/07/19 11:00:19;;;;;;;4.80;2.08;;;;;;;;;;5165382;27;20047;-66
2022/07/19 11:02:45;;;;;;;4.55;1.90;;;;;;;;;;5194308;27;20108;-66
2022/07/19 11:05:24;;;;;;;5.10;2.13;;;;;;;;;;5186313;27;20034;-68
2022/07/19 11:07:52;;;;;;;5.28;2.13;;;;;;;;;;5172482;27;20038;-66
2022/07/19 11:10:22;;;;;;;4.03;2.22;;;;;;;;;;5193380;27;20129;-68
2022/07/19 11:12:49;;;;;;;5.20;1.75;;;;;;;;;;5193428;27;20090;-67
2022/07/19 11:15:15;;;;;;;2.25;2.00;;;;;;;;;;5193457;27;20049;-66
2022/07/19 11:17:50;;;;;;;7.72;2.25;;;;;;;;;;5179918;27;20037;-67
2022/07/19 11:20:19;;;;;;;6.38;2.00;;;;;;;;;;5158303;27;20053;-67
2022/07/19 11:22:46;;;;;;;6.40;2.30;;;;;;;;;;5152242;27;20121;-67
2022/07/19 11:25:13;;;;;;;4.47;2.25;;;;;;;;;;5148287;27;20136;-68
2022/07/19 11:27:45;;;;;;;5.30;1.90;;;;;;;;;;5171434;27;20062;-67
2022/07/19 11:30:12;;;;;;;7.15;2.22;;;;;;;;;;5151958;27;20044;-68
2022/07/19 11:32:41;;;;;;;11.65;5.63;;;;;;;;;;5172266;27;20172;-67
2022/07/19 11:35:08;;;;;;;5.45;2.40;;;;;;;;;;5157963;27;20074;-68
2022/07/19 11:37:39;;;;;;;4.50;2.10;;;;;;;;;;5162821;27;20038;-68
2022/07/19 11:40:06;;;;;;;5.63;2.10;;;;;;;;;;5189289;27;20200;-68
2022/07/19 11:42:34;;;;;;;7.30;2.35;;;;;;;;;;5189284;27;20032;-67
2022/07/19 11:45:07;;;;;;;6.63;2.20;;;;;;;;;;5192975;27;20034;-67
2022/07/19 11:47:33;;;;;;;7.88;1.83;;;;;;;;;;5192973;27;20836;-67
2022/07/19 11:50:09;;;;;;;4.85;1.90;;;;;;;;;;5192633;27;20124;-67
2022/07/19 11:52:46;;;;;;;6.55;1.95;;;;;;;;;;5193889;27;20046;-66
2022/07/19 11:55:12;;;;;;;4.50;1.85;;;;;;;;;;5193464;27;20371;-67
2022/07/19 11:57:38;;;;;;;5.03;1.98;;;;;;;;;;5192599;27;20432;-67
2022/07/19 12:00:06;;;;;;;4.70;1.83;;;;;;;;;;5194058;27;20129;-66
2022/07/19 12:02:49;;;;;;;4.35;2.30;;;;;;;;;;5168786;27;20116;-67
2022/07/19 12:05:15;;;;;;;5.50;2.00;;;;;;;;;;5144763;27;20045;-71
2022/07/19 12:07:48;;;;;;;5.47;1.80;;;;;;;;;;5158174;27;20444;-69
2022/07/19 12:10:34;;;;;;;5.32;1.90;;;;;;;;;;5160104;27;20400;-66
2022/07/19 12:13:01;;;;;;;4.85;1.70;;;;;;;;;;5185502;27;20039;-67
2022/07/19 12:15:27;;;;;;;3.38;1.45;;;;;;;;;;5164372;27;20053;-68
2022/07/19 12:17:57;;;;;;;6.30;1.63;;;;;;;;;;5193212;27;20052;-66
2022/07/19 12:20:23;;;;;;;3.22;1.67;;;;;;;;;;5181837;27;20046;-68
2022/07/19 12:22:51;;;;;;;2.55;1.60;;;;;;;;;;5167212;27;20026;-67
2022/07/19 12:25:35;;;;;;;9.75;1.65;;;;;;;;;;5190306;27;20034;-65
2022/07/19 12:28:01;;;;;;;4.22;1.60;;;;;;;;;;5178083;27;20120;-63
2022/07/19 12:30:29;;;;;;;3.25;1.38;;;;;;;;;;5187240;27;20043;-65
2022/07/19 12:33:05;;;;;;;4.47;1.50;;;;;;;;;;5170061;27;20393;-68
2022/07/19 12:35:40;;;;;;;3.63;1.70;;;;;;;;;;5192900;27;20050;-66
2022/07/19 12:38:09;;;;;;;6.00;1.40;;;;;;;;;;5192942;27;20049;-64
2022/07/19 12:40:36;;;;;;;3.55;1.85;;;;;;;;;;5168114;27;20042;-63
2022/07/19 12:43:03;;;;;;;6.03;1.50;;;;;;;;;;5167017;27;20098;-63
2022/07/19 12:45:46;;;;;;;4.43;1.40;;;;;;;;;;5170316;27;20053;-64
2022/07/19 12:48:13;;;;;;;3.28;1.42;;;;;;;;;;5165524;27;20122;-64
2022/07/19 12:50:40;;;;;;;4.40;1.52;;;;;;;;;;5162330;27;20066;-64
2022/07/19 12:53:08;;;;;;;3.60;1.40;;;;;;;;;;5172335;27;20046;-66
2022/07/19 12:55:35;;;;;;;3.58;1.48;;;;;;;;;;5192160;27;20064;-67
2022/07/19 12:58:02;;;;;;;4.43;1.33;;;;;;;;;;5177915;27;20053;-68
2022/07/19 13:00:28;;;;;;;2.42;1.50;;;;;;;;;;5196297;27;20117;-66
2022/07/19 13:02:55;;;;;;;3.60;1.13;;;;;;;;;;5195350;27;20037;-66
2022/07/19 13:05:22;;;;;;;7.82;1.85;;;;;;;;;;5196981;27;20733;-66
2022/07/19 13:07:48;;;;;;;4.57;1.50;;;;;;;;;;5196486;27;20049;-66
2022/07/19 13:10:15;;;;;;;6.00;1.27;;;;;;;;;;5185332;27;20079;-68
2022/07/19 13:12:41;;;;;;;3.45;1.63;;;;;;;;;;5197156;27;20033;-65
2022/07/19 13:15:08;;;;;;;3.03;1.35;;;;;;;;;;5188417;27;20073;-65
2022/07/19 13:17:34;;;;;;;4.10;1.50;;;;;;;;;;5195895;27;20033;-66
2022/07/19 13:20:00;;;;;;;4.63;1.38;;;;;;;;;;5195617;27;20470;-63
2022/07/19 13:22:26;;;;;;;3.22;1.33;;;;;;;;;;5193461;27;20531;-64
2022/07/19 13:24:52;;;;;;;4.60;1.30;;;;;;;;;;5154762;27;20031;-65
2022/07/19 13:27:19;;;;;;;5.50;1.65;;;;;;;;;;5188446;27;20042;-66
2022/07/19 13:29:45;;;;;;;6.22;1.30;;;;;;;;;;5195595;27;20041;-66
2022/07/19 13:32:11;;;;;;;2.25;1.40;;;;;;;;;;5196465;27;20523;-65
2022/07/19 13:34:38;;;;;;;3.08;1.33;;;;;;;;;;5195850;27;20038;-64
2022/07/19 13:37:04;;;;;;;2.83;1.20;;;;;;;;;;5196295;27;20133;-66
2022/07/19 13:39:31;;;;;;;2.47;1.40;;;;;;;;;;5161164;27;20049;-66
2022/07/19 13:41:57;;;;;;;1.90;1.40;;;;;;;;;;5153175;27;20306;-65
2022/07/19 13:44:23;;;;;;;2.33;1.30;;;;;;;;;;5153702;27;20043;-66
2022/07/19 13:46:49;;;;;;;3.35;1.30;;;;;;;;;;5154088;27;20042;-67
2022/07/19 13:49:15;;;;;;;3.78;1.40;;;;;;;;;;5135603;27;20090;-69
2022/07/19 13:51:41;;;;;;;2.78;1.15;;;;;;;;;;5173001;27;20038;-66
2022/07/19 13:54:07;;;;;;;4.45;1.40;;;;;;;;;;5195541;27;20454;-66
2022/07/19 13:56:33;;;;;;;3.75;1.60;;;;;;;;;;5195404;27;20116;-66
2022/07/19 13:59:00;;;;;;;3.00;1.42;;;;;;;;;;5194925;27;20033;-66
2022/07/19 14:01:26;;;;;;;2.95;1.35;;;;;;;;;;5165317;27;20038;-66
2022/07/19 14:03:52;;;;;;;2.08;1.17;;;;;;;;;;5181432;27;20042;-67
2022/07/19 14:06:18;;;;;;;4.72;1.20;;;;;;;;;;5182855;27;20034;-67
2022/07/19 14:08:44;;;;;;;3.53;1.42;;;;;;;;;;5153733;27;20046;-67
2022/07/19 14:11:11;;;;;;;1.98;1.40;;;;;;;;;;5156307;27;20809;-66
2022/07/19 14:13:37;;;;;;;2.28;1.40;;;;;;;;;;5169040;27;20056;-67
2022/07/19 14:16:03;;;;;;;3.17;1.33;;;;;;;;;;5176712;27;20510;-65
2022/07/19 14:18:30;;;;;;;1.92;1.20;;;;;;;;;;5181811;27;20034;-69
2022/07/19 14:20:56;;;;;;;2.28;1.38;;;;;;;;;;5176269;27;20038;-69
2022/07/19 14:23:22;;;;;;;5.78;1.40;;;;;;;;;;5163777;27;20487;-66
2022/07/19 14:25:48;;;;;;;2.75;1.30;;;;;;;;;;5188261;27;20038;-66
2022/07/19 14:28:15;;;;;;;2.33;1.30;;;;;;;;;;5183591;27;20038;-66
2022/07/19 14:30:42;;;;;;;4.05;1.33;;;;;;;;;;5163929;27;20042;-65
2022/07/19 14:33:09;;;;;;;3.45;1.30;;;;;;;;;;5162200;27;20496;-67
2022/07/19 14:35:35;;;;;;;3.20;1.33;;;;;;;;;;5191106;27;20483;-67
2022/07/19 14:38:02;;;;;;;2.15;1.30;;;;;;;;;;5178607;27;20043;-67
2022/07/19 14:40:28;;;;;;;3.38;1.73;;;;;;;;;;5166657;27;20034;-67
2022/07/19 14:42:54;;;;;;;4.07;1.27;;;;;;;;;;5166984;27;20038;-65
2022/07/19 14:45:20;;;;;;;2.60;1.80;;;;;;;;;;5171758;27;20037;-64
2022/07/19 14:47:46;;;;;;;7.60;1.30;;;;;;;;;;5181364;27;20039;-66
2022/07/19 14:50:12;;;;;;;2.78;1.92;;;;;;;;;;5176880;27;20490;-66
2022/07/19 14:52:39;;;;;;;3.97;1.50;;;;;;;;;;5171376;27;20384;-65
2022/07/19 14:55:06;;;;;;;4.45;1.60;;;;;;;;;;5155671;27;20068;-67
2022/07/19 14:57:32;;;;;;;3.33;1.50;;;;;;;;;;5155938;27;20492;-67
2022/07/19 14:59:58;;;;;;;2.85;1.40;;;;;;;;;;5155455;27;20466;-67
2022/07/19 15:02:24;;;;;;;4.93;1.30;;;;;;;;;;5173948;27;20041;-68
2022/07/19 15:04:51;;;;;;;2.83;1.48;;;;;;;;;;5156255;27;20456;-68
2022/07/19 15:07:17;;;;;;;6.68;1.33;;;;;;;;;;5174806;27;20504;-68
2022/07/19 15:09:43;;;;;;;6.00;1.48;;;;;;;;;;5173767;27;20129;-67
2022/07/19 15:12:09;;;;;;;1.83;1.33;;;;;;;;;;5174362;27;20046;-67